Time;durP1;ratioP1;P1;durP2;ratioP2;P2;SDS_P1;SDS_P2;PMS_P1;PMS_P2;Temp;Humidity;BMP_temperature;BMP_pressure;BME280_temperature;BME280_humidity;BME280_pressure;Samples;Min_cycle;Max_cycle;Signal;HPM_P1;HPM_P2
2022/03/27 00:01:53;;;;;;;10.07;6.30;;;;;;;8.44;44.58;62863.78;5045080;28;20245;-79
2022/03/27 00:04:21;;;;;;;13.75;6.57;;;;;;;8.37;44.99;62869.22;5042952;28;20213;-78
2022/03/27 00:06:47;;;;;;;10.68;6.72;;;;;;;8.26;45.51;62852.81;5045973;28;20205;-78
2022/03/27 00:09:15;;;;;;;15.77;6.35;;;;;;;8.19;45.61;62846.06;5045287;28;20201;-77
2022/03/27 00:11:42;;;;;;;13.02;7.43;;;;;;;8.07;45.97;62833.69;5044376;28;20253;-77
2022/03/27 00:14:08;;;;;;;16.17;8.43;;;;;;;7.96;46.67;62821.78;5041826;28;20240;-78
2022/03/27 00:16:36;;;;;;;13.00;7.30;;;;;;;7.88;46.93;62811.00;5043142;28;20248;-78
2022/03/27 00:19:04;;;;;;;15.00;7.40;;;;;;;7.78;47.04;62803.22;5043492;28;20206;-78
2022/03/27 00:21:34;;;;;;;12.52;6.65;;;;;;;7.65;47.44;62792.31;5045717;28;20277;-79
2022/03/27 00:24:01;;;;;;;20.33;7.03;;;;;;;7.59;47.55;62783.59;5044273;28;20218;-78
2022/03/27 00:26:28;;;;;;;11.95;6.97;;;;;;;7.58;47.64;62778.00;5045164;28;20194;-77
2022/03/27 00:28:55;;;;;;;17.00;6.28;;;;;;;7.59;47.96;62781.56;5047825;28;20208;-78
2022/03/27 00:31:21;;;;;;;9.25;6.47;;;;;;;7.47;48.81;62771.22;5044348;28;20244;-79
2022/03/27 00:33:48;;;;;;;11.98;6.18;;;;;;;7.48;49.33;62769.72;5044900;28;20222;-78
2022/03/27 00:36:16;;;;;;;8.45;5.43;;;;;;;7.37;49.63;62761.41;5044714;28;20218;-78
2022/03/27 00:38:46;;;;;;;13.23;6.25;;;;;;;7.29;49.39;62748.09;5046401;28;20217;-78
2022/03/27 00:41:14;;;;;;;13.80;5.57;;;;;;;7.29;48.86;62753.16;5045584;28;20206;-79
2022/03/27 00:43:41;;;;;;;14.18;6.15;;;;;;;7.24;48.89;62745.47;5045497;28;20273;-77
2022/03/27 00:46:08;;;;;;;9.68;6.10;;;;;;;7.27;50.00;62745.50;5033271;28;20222;-78
2022/03/27 00:48:35;;;;;;;12.70;6.07;;;;;;;7.26;48.89;62750.06;5026265;28;20211;-79
2022/03/27 00:51:03;;;;;;;7.97;5.70;;;;;;;7.27;49.07;62753.09;5043643;28;20202;-79
2022/03/27 00:53:30;;;;;;;10.73;5.13;;;;;;;7.30;48.27;62751.13;5049118;28;20229;-78
2022/03/27 00:55:59;;;;;;;9.13;5.53;;;;;;;7.21;48.25;62737.31;5045734;28;20210;-78
2022/03/27 00:58:25;;;;;;;11.00;6.10;;;;;;;7.30;48.09;62748.59;5043301;28;20218;-78
2022/03/27 01:00:57;;;;;;;6.65;5.45;;;;;;;7.31;48.02;62757.22;5044559;28;20199;-78
2022/03/27 01:03:26;;;;;;;8.73;6.07;;;;;;;7.38;47.94;62754.31;5044358;28;20226;-78
2022/03/27 01:05:57;;;;;;;12.88;6.18;;;;;;;7.45;47.87;62764.09;5044739;28;20195;-77
2022/03/27 01:11:14;;;;;;;8.18;5.70;;;;;;;7.41;47.39;62765.53;5046161;28;20213;-77
2022/03/27 01:13:45;;;;;;;9.65;5.95;;;;;;;7.48;47.26;62769.72;5043382;28;20257;-77
2022/03/27 01:16:18;;;;;;;10.20;5.80;;;;;;;7.49;47.24;62773.78;5046232;28;20205;-78
2022/03/27 01:18:46;;;;;;;10.70;6.00;;;;;;;7.64;46.74;62788.75;5047789;28;20233;-78
2022/03/27 01:21:14;;;;;;;11.18;6.97;;;;;;;7.81;46.51;62803.78;5047260;28;20285;-78
2022/03/27 01:23:41;;;;;;;7.45;5.75;;;;;;;7.85;46.98;62810.44;5048905;28;20555;-78
2022/03/27 01:26:08;;;;;;;11.02;5.55;;;;;;;7.81;46.50;62806.84;5043520;28;20202;-79
2022/03/27 01:28:36;;;;;;;9.75;5.63;;;;;;;7.94;45.99;62820.25;5046367;28;20296;-78
2022/03/27 01:31:06;;;;;;;12.13;6.35;;;;;;;7.84;46.46;62809.94;5047265;28;20209;-78
2022/03/27 01:33:33;;;;;;;13.50;6.30;;;;;;;7.82;46.98;62807.84;5046937;28;20234;-79
2022/03/27 01:36:00;;;;;;;10.88;6.22;;;;;;;7.70;47.43;62795.47;5047052;28;20487;-78
2022/03/27 01:38:29;;;;;;;8.73;6.53;;;;;;;7.53;47.92;62775.38;5047523;28;20431;-78
2022/03/27 01:40:57;;;;;;;10.98;7.25;;;;;;;7.49;48.41;62773.78;5046619;28;20225;-78
2022/03/27 01:43:24;;;;;;;10.32;6.60;;;;;;;7.34;48.68;62755.25;5046660;28;20232;-77
2022/03/27 01:45:51;;;;;;;12.77;6.68;;;;;;;7.34;48.51;62755.78;5047025;28;20368;-78
2022/03/27 01:48:18;;;;;;;10.25;6.35;;;;;;;7.25;48.82;62748.50;5046342;28;20286;-78
2022/03/27 01:50:45;;;;;;;17.88;7.72;;;;;;;7.09;49.27;62729.47;5047549;28;20209;-78
2022/03/27 01:53:12;;;;;;;13.95;6.93;;;;;;;6.87;50.11;62710.31;5048075;28;20242;-78
2022/03/27 01:55:40;;;;;;;15.60;7.57;;;;;;;6.81;50.16;62704.16;5050734;28;20198;-78
2022/03/27 01:58:08;;;;;;;12.90;6.43;;;;;;;6.69;51.21;62689.25;5048402;28;20234;-77
2022/03/27 02:00:35;;;;;;;15.40;7.35;;;;;;;6.62;51.08;62681.50;5046321;28;20202;-78
2022/03/27 02:03:03;;;;;;;18.08;8.57;;;;;;;6.58;51.25;62677.91;5045570;28;20293;-77
2022/03/27 02:05:31;;;;;;;14.15;7.47;;;;;;;6.55;50.94;62676.81;5046526;28;20449;-78
2022/03/27 02:07:58;;;;;;;8.77;6.38;;;;;;;6.54;51.02;62673.25;5046632;28;20230;-78
2022/03/27 02:10:25;;;;;;;10.65;5.90;;;;;;;6.50;51.00;62669.13;5046847;28;20266;-78
2022/03/27 02:12:53;;;;;;;9.15;6.72;;;;;;;6.53;51.30;62675.25;5050363;28;20234;-79
2022/03/27 02:15:20;;;;;;;13.35;6.47;;;;;;;6.57;51.01;62678.88;5050780;28;20741;-79
2022/03/27 02:17:48;;;;;;;14.15;6.00;;;;;;;6.48;51.49;62670.13;5049533;28;20290;-79
2022/03/27 02:20:14;;;;;;;14.95;6.22;;;;;;;6.42;52.32;62663.41;5048613;28;20231;-77
2022/03/27 02:22:41;;;;;;;13.80;7.00;;;;;;;6.41;51.97;62662.38;5047910;28;20452;-77
2022/03/27 02:25:09;;;;;;;9.75;6.25;;;;;;;6.43;52.50;62664.44;5052752;28;20244;-77
2022/03/27 02:27:37;;;;;;;8.75;5.93;;;;;;;6.34;52.85;62652.63;5052598;28;20218;-78
2022/03/27 02:30:08;;;;;;;9.50;6.32;;;;;;;6.17;53.89;62638.16;5051687;28;20202;-78
2022/03/27 02:32:35;;;;;;;9.85;6.53;;;;;;;6.07;54.14;62627.31;5048940;28;20230;-78
2022/03/27 02:35:02;;;;;;;16.42;6.50;;;;;;;5.94;54.73;62609.38;5064034;28;20217;-80
2022/03/27 02:37:29;;;;;;;11.07;6.75;;;;;;;5.83;55.16;62601.09;5070599;28;20213;-80
2022/03/27 02:39:56;;;;;;;14.50;6.72;;;;;;;5.77;55.45;62596.91;5052011;28;20460;-80
2022/03/27 02:42:23;;;;;;;10.05;6.53;;;;;;;5.71;55.89;62593.25;5047141;28;20664;-78
2022/03/27 02:44:50;;;;;;;11.48;6.47;;;;;;;5.60;56.12;62579.91;5048178;28;20201;-78
2022/03/27 02:47:19;;;;;;;12.32;6.63;;;;;;;5.61;55.79;62580.91;5046989;28;20229;-79
2022/03/27 02:49:46;;;;;;;19.27;7.47;;;;;;;5.58;55.86;62577.84;5047813;28;20218;-78
2022/03/27 02:52:13;;;;;;;12.02;6.45;;;;;;;5.57;55.80;62571.75;5047453;28;20479;-78
2022/03/27 02:54:40;;;;;;;14.00;6.60;;;;;;;5.53;55.91;62569.63;5046674;28;20197;-79
2022/03/27 02:57:07;;;;;;;10.38;6.25;;;;;;;5.58;55.90;62574.78;5045324;28;20223;-77
2022/03/27 02:59:34;;;;;;;16.35;6.20;;;;;;;5.42;57.46;62558.81;5046196;28;20216;-79
2022/03/27 03:02:03;;;;;;;13.05;5.90;;;;;;;5.43;57.49;62559.88;5047960;28;20289;-79
2022/03/27 03:04:34;;;;;;;15.02;6.20;;;;;;;5.40;57.88;62556.25;5046482;28;20273;-78
2022/03/27 03:07:01;;;;;;;8.95;6.30;;;;;;;5.29;58.04;62550.47;5047205;28;20376;-78
2022/03/27 03:09:28;;;;;;;8.77;5.57;;;;;;;5.28;58.37;62543.91;5048742;28;20202;-78
2022/03/27 03:11:56;;;;;;;13.25;7.05;;;;;;;5.25;59.62;62543.31;5052884;28;20222;-79
2022/03/27 03:14:23;;;;;;;13.07;6.35;;;;;;;5.17;59.46;62533.06;5049848;28;20198;-79
2022/03/27 03:16:51;;;;;;;15.23;7.38;;;;;;;5.10;59.70;62530.91;5051457;28;20252;-79
2022/03/27 03:19:18;;;;;;;12.73;6.65;;;;;;;5.11;59.91;62529.41;5048749;28;20235;-78
2022/03/27 03:21:47;;;;;;;17.40;6.90;;;;;;;5.04;60.53;62519.69;5050798;28;20213;-78
2022/03/27 03:24:14;;;;;;;9.88;6.38;;;;;;;5.08;60.84;62523.28;5051364;28;20206;-78
2022/03/27 03:26:41;;;;;;;11.00;6.65;;;;;;;5.02;60.93;62522.66;5052294;28;20198;-79
2022/03/27 03:29:08;;;;;;;10.50;5.57;;;;;;;5.06;60.59;62518.69;5048031;28;20206;-79
2022/03/27 03:31:35;;;;;;;11.55;6.40;;;;;;;5.03;62.84;62520.66;5046419;28;20213;-79
2022/03/27 03:34:02;;;;;;;13.60;6.38;;;;;;;5.11;63.08;62531.94;5047635;28;20289;-79
2022/03/27 03:36:30;;;;;;;11.75;5.47;;;;;;;5.11;62.32;62526.88;5046411;28;20201;-79
2022/03/27 03:38:58;;;;;;;14.50;5.70;;;;;;;5.12;61.35;62527.94;5044865;28;20206;-79
2022/03/27 03:41:26;;;;;;;9.82;5.50;;;;;;;5.14;61.48;62535.03;5046512;28;20216;-78
2022/03/27 03:43:52;;;;;;;7.00;5.40;;;;;;;5.18;61.33;62536.09;5051197;28;20277;-78
2022/03/27 03:46:19;;;;;;;14.35;5.35;;;;;;;5.24;61.26;62540.28;5048718;28;20415;-79
2022/03/27 03:48:46;;;;;;;7.25;5.75;;;;;;;5.28;61.35;62546.91;5046669;28;20410;-78
2022/03/27 03:51:13;;;;;;;9.57;6.18;;;;;;;5.32;61.57;62551.03;5045968;28;20334;-79
2022/03/27 03:53:40;;;;;;;10.05;5.43;;;;;;;5.22;61.87;62535.19;5047326;28;20244;-79
2022/03/27 03:56:09;;;;;;;10.82;5.13;;;;;;;5.23;62.29;62541.78;5049477;28;20205;-79
2022/03/27 03:58:36;;;;;;;15.23;6.15;;;;;;;5.26;61.19;62547.41;5048912;28;20222;-78
2022/03/27 04:01:03;;;;;;;7.47;5.75;;;;;;;5.23;61.00;62538.75;5051243;28;20194;-79
2022/03/27 04:03:31;;;;;;;8.82;5.95;;;;;;;5.22;61.01;62540.22;5047810;28;20592;-79
2022/03/27 04:05:58;;;;;;;12.65;4.93;;;;;;;5.18;60.93;62536.63;5047993;28;20221;-78
2022/03/27 04:08:25;;;;;;;8.77;5.40;;;;;;;5.21;60.48;62534.66;5047866;28;20234;-79
2022/03/27 04:10:52;;;;;;;11.52;6.45;;;;;;;5.19;59.91;62532.63;5048198;28;20250;-79
2022/03/27 04:13:21;;;;;;;10.95;5.70;;;;;;;5.19;59.61;62537.66;5049053;28;20238;-80
2022/03/27 04:15:48;;;;;;;8.77;5.50;;;;;;;5.18;59.30;62539.16;5052549;28;20249;-77
2022/03/27 04:18:22;;;;;;;14.75;6.15;;;;;;;5.25;59.23;62540.78;5036491;28;20231;-79
2022/03/27 04:20:53;;;;;;;10.60;6.82;;;;;;;5.25;59.90;62538.25;5045399;28;20198;-79
2022/03/27 04:23:21;;;;;;;19.20;8.63;;;;;;;5.33;60.14;62549.53;5045494;28;20565;-79
2022/03/27 04:25:48;;;;;;;10.32;5.82;;;;;;;5.32;60.10;62548.00;5046780;28;20204;-79
2022/03/27 04:28:14;;;;;;;12.88;6.57;;;;;;;5.33;60.62;62552.06;5029105;28;20233;-78
2022/03/27 04:30:43;;;;;;;15.38;6.78;;;;;;;5.40;61.19;62556.25;5028615;28;20199;-79
2022/03/27 04:33:10;;;;;;;11.43;7.00;;;;;;;5.43;61.26;62554.28;5047605;28;20244;-79
2022/03/27 04:35:38;;;;;;;12.32;6.07;;;;;;;5.35;60.32;62551.59;5049684;28;20205;-79
2022/03/27 04:38:05;;;;;;;13.32;6.93;;;;;;;5.24;60.38;62542.81;5046820;28;20558;-79
2022/03/27 04:40:32;;;;;;;11.70;6.18;;;;;;;5.38;60.56;62549.16;5046873;28;20206;-80
2022/03/27 04:42:59;;;;;;;20.48;6.72;;;;;;;5.42;59.79;62561.34;5047630;28;20220;-78
2022/03/27 04:45:26;;;;;;;9.38;5.60;;;;;;;5.37;59.67;62556.19;5046160;28;20206;-79
2022/03/27 04:47:54;;;;;;;14.95;6.93;;;;;;;5.49;59.51;62568.56;5047142;28;20281;-79
2022/03/27 04:50:21;;;;;;;9.40;6.53;;;;;;;5.53;59.19;62570.16;5046660;28;20206;-81
2022/03/27 04:52:48;;;;;;;15.45;7.60;;;;;;;5.49;59.40;62565.50;5049220;28;20629;-79
2022/03/27 04:55:15;;;;;;;8.70;5.80;;;;;;;5.61;59.49;62577.88;5049454;28;20389;-79
2022/03/27 04:57:43;;;;;;;6.45;4.90;;;;;;;5.70;59.30;62590.19;5049869;28;20506;-80
2022/03/27 05:00:14;;;;;;;8.63;5.10;;;;;;;5.67;59.31;62581.53;5051588;28;20202;-80
2022/03/27 05:02:42;;;;;;;10.32;5.82;;;;;;;5.78;59.06;62598.44;5050949;28;20213;-80
2022/03/27 05:05:15;;;;;;;10.40;5.78;;;;;;;5.84;59.09;62604.13;5051487;28;20200;-79
2022/03/27 05:07:43;;;;;;;9.88;5.63;;;;;;;5.98;58.15;62615.50;5049664;28;20233;-80
2022/03/27 05:10:12;;;;;;;11.63;6.80;;;;;;;6.04;57.97;62622.22;5052036;28;20260;-80
2022/03/27 05:12:39;;;;;;;8.50;6.45;;;;;;;6.03;57.14;62621.19;5051255;28;20229;-81
2022/03/27 05:15:15;;;;;;;11.55;6.43;;;;;;;6.08;57.14;62628.34;5051157;28;20197;-79
2022/03/27 05:17:47;;;;;;;9.57;5.30;;;;;;;6.03;56.58;62618.66;5051776;28;20233;-80
2022/03/27 05:20:15;;;;;;;11.35;5.10;;;;;;;6.07;56.34;62627.84;5042420;28;20256;-80
2022/03/27 05:22:43;;;;;;;14.55;5.93;;;;;;;6.20;55.77;62643.75;5029803;28;20531;-80
2022/03/27 05:25:12;;;;;;;12.02;5.55;;;;;;;6.37;54.80;62660.78;5029731;28;20256;-78
2022/03/27 05:27:46;;;;;;;10.52;5.50;;;;;;;6.47;54.21;62663.50;5069524;28;20303;-80
2022/03/27 05:30:15;;;;;;;10.15;5.75;;;;;;;6.46;54.79;62668.03;5058624;28;20228;-78
2022/03/27 05:32:42;;;;;;;11.82;6.15;;;;;;;6.66;55.42;62688.66;5048425;28;20327;-79
2022/03/27 05:35:10;;;;;;;11.25;5.65;;;;;;;6.73;55.40;62695.38;5050655;28;20202;-80
2022/03/27 05:37:39;;;;;;;11.68;6.88;;;;;;;6.77;55.80;62694.97;5050941;28;20214;-78
2022/03/27 05:40:09;;;;;;;19.88;6.63;;;;;;;6.94;55.27;62717.03;5049629;28;20257;-80
2022/03/27 05:42:36;;;;;;;10.63;7.07;;;;;;;7.09;54.90;62730.00;5049928;28;20533;-79
2022/03/27 05:45:04;;;;;;;13.48;6.30;;;;;;;7.23;55.15;62746.94;5048450;28;20234;-79
2022/03/27 05:47:31;;;;;;;9.00;5.82;;;;;;;7.33;54.47;62754.75;5048636;28;20210;-79
2022/03/27 05:49:58;;;;;;;10.80;5.95;;;;;;;7.50;53.75;62774.84;5049444;28;20228;-79
2022/03/27 05:52:25;;;;;;;12.25;5.63;;;;;;;7.57;53.19;62779.00;5051345;28;20218;-78
2022/03/27 05:54:54;;;;;;;15.52;6.03;;;;;;;7.47;52.11;62771.22;5051521;28;20234;-78
2022/03/27 05:57:21;;;;;;;12.25;6.80;;;;;;;7.63;51.25;62785.72;5053117;28;20218;-78
2022/03/27 05:59:48;;;;;;;24.02;5.70;;;;;;;7.81;51.54;62806.31;5050731;28;20236;-79
2022/03/27 06:02:15;;;;;;;13.18;6.00;;;;;;;7.67;51.02;62789.84;5047928;28;20228;-78
2022/03/27 06:04:43;;;;;;;15.32;6.53;;;;;;;7.77;50.67;62804.72;5050379;28;20198;-78
2022/03/27 06:07:11;;;;;;;14.35;6.47;;;;;;;7.70;49.69;62795.47;5050067;28;20232;-79
2022/03/27 06:09:39;;;;;;;14.18;6.18;;;;;;;7.85;50.13;62805.38;5047824;28;20202;-79
2022/03/27 06:12:09;;;;;;;12.20;6.68;;;;;;;7.95;49.63;62818.75;5046500;28;20408;-78
2022/03/27 06:14:37;;;;;;;15.10;6.53;;;;;;;8.14;49.45;62843.44;5044314;28;20289;-79
2022/03/27 06:17:04;;;;;;;15.18;6.10;;;;;;;8.28;49.12;62851.81;5026347;28;20210;-77
2022/03/27 06:19:32;;;;;;;15.25;6.80;;;;;;;8.40;48.47;62864.72;5029816;28;20202;-78
2022/03/27 06:21:59;;;;;;;9.77;6.22;;;;;;;8.43;48.42;62869.84;5034388;28;20234;-79
2022/03/27 06:24:29;;;;;;;9.65;6.53;;;;;;;8.45;48.57;62872.44;5046461;28;20198;-79
2022/03/27 06:26:57;;;;;;;14.18;7.13;;;;;;;8.65;48.21;62890.56;5038602;28;20210;-79
2022/03/27 06:29:25;;;;;;;14.60;6.97;;;;;;;8.69;48.50;62897.22;5034400;28;20227;-78
2022/03/27 06:31:53;;;;;;;20.60;7.00;;;;;;;8.88;48.26;62916.34;5047573;28;20218;-79
2022/03/27 06:34:21;;;;;;;18.00;7.75;;;;;;;9.02;48.06;62930.81;5046265;28;20237;-79
2022/03/27 06:36:47;;;;;;;11.13;5.85;;;;;;;9.06;47.46;62935.47;5034329;28;20198;-79
2022/03/27 06:39:15;;;;;;;15.25;6.75;;;;;;;9.22;46.55;62951.47;5039075;28;20201;-78
2022/03/27 06:41:42;;;;;;;14.90;6.65;;;;;;;9.10;47.04;62939.06;5028005;28;20206;-78
2022/03/27 06:44:09;;;;;;;19.58;7.03;;;;;;;9.15;47.21;62941.72;5045918;28;20265;-79
2022/03/27 06:46:37;;;;;;;10.18;6.93;;;;;;;9.05;47.45;62934.44;5047373;28;20198;-79
2022/03/27 06:49:04;;;;;;;13.63;6.20;;;;;;;9.20;46.85;62947.41;5046610;28;20381;-79
2022/03/27 06:51:32;;;;;;;18.02;7.10;;;;;;;9.35;46.79;62962.91;5046634;28;20274;-78
2022/03/27 06:54:00;;;;;;;14.77;6.63;;;;;;;9.49;46.19;62978.88;5048560;28;20306;-78
2022/03/27 06:56:29;;;;;;;18.45;7.10;;;;;;;9.30;46.59;62962.81;5038507;28;20414;-79
2022/03/27 06:58:58;;;;;;;16.85;7.05;;;;;;;9.39;46.73;62969.06;5049551;28;20210;-80
2022/03/27 07:04:11;;;;;;;13.93;7.40;;;;;;;9.70;46.95;62998.06;5047142;28;20224;-80
2022/03/27 07:06:42;;;;;;;12.75;6.80;;;;;;;9.62;46.62;62992.84;5048732;28;20212;-80
2022/03/27 07:09:10;;;;;;;16.13;7.85;;;;;;;9.79;46.70;63015.50;5048484;28;20198;-79
2022/03/27 07:11:37;;;;;;;14.05;8.40;;;;;;;9.94;46.32;63023.41;5030927;28;20206;-80
2022/03/27 07:14:04;;;;;;;14.88;7.72;;;;;;;10.02;45.63;63031.16;5046349;28;20291;-80
2022/03/27 07:16:32;;;;;;;19.88;8.23;;;;;;;10.20;45.00;63050.31;5064200;28;20253;-79
2022/03/27 07:18:59;;;;;;;13.82;7.57;;;;;;;10.40;44.27;63073.03;5049591;28;20197;-79
2022/03/27 07:21:29;;;;;;;13.52;7.43;;;;;;;10.27;45.14;63060.09;5048197;28;20209;-78
2022/03/27 07:23:58;;;;;;;11.25;8.18;;;;;;;10.56;45.27;63091.63;5045812;28;20197;-79
2022/03/27 07:26:25;;;;;;;17.95;8.45;;;;;;;10.69;44.84;63100.50;5047659;28;20198;-79
2022/03/27 07:28:52;;;;;;;16.88;8.40;;;;;;;10.88;44.21;63117.13;5049278;28;20230;-80
2022/03/27 07:31:21;;;;;;;13.98;8.13;;;;;;;11.08;44.57;63143.44;5046836;28;20194;-80
2022/03/27 07:33:48;;;;;;;16.33;8.50;;;;;;;11.23;43.75;63158.97;5045111;28;20230;-81
2022/03/27 07:36:15;;;;;;;18.40;8.68;;;;;;;11.33;42.38;63171.34;5045570;28;20232;-79
2022/03/27 07:38:43;;;;;;;17.52;9.95;;;;;;;11.18;42.88;63153.78;5046614;28;20236;-79
2022/03/27 07:41:14;;;;;;;15.40;9.38;;;;;;;11.31;42.56;63167.25;5046742;28;20205;-78
2022/03/27 07:43:41;;;;;;;14.52;8.27;;;;;;;11.55;42.42;63192.13;5044325;28;20236;-80
2022/03/27 07:46:08;;;;;;;14.43;8.60;;;;;;;11.65;42.68;63201.97;5049995;28;20202;-78
2022/03/27 07:48:35;;;;;;;13.98;8.65;;;;;;;11.89;42.08;63223.78;5048909;28;20542;-78
2022/03/27 07:51:02;;;;;;;17.83;10.23;;;;;;;11.90;41.68;63225.34;5051404;28;20197;-78
2022/03/27 07:53:29;;;;;;;19.55;9.98;;;;;;;12.04;40.74;63242.41;5039192;28;20376;-78
2022/03/27 07:55:57;;;;;;;18.17;9.45;;;;;;;12.01;41.09;63236.22;5037590;28;20246;-78
2022/03/27 07:58:24;;;;;;;17.92;9.57;;;;;;;12.10;41.17;63248.09;5042258;28;20442;-78
2022/03/27 08:00:54;;;;;;;28.50;11.25;;;;;;;12.11;40.51;63249.66;5042383;28;20221;-78
2022/03/27 08:03:21;;;;;;;25.05;10.75;;;;;;;12.06;40.26;63241.41;5041828;28;20210;-78
2022/03/27 08:05:48;;;;;;;21.70;11.13;;;;;;;12.25;40.23;63264.16;5043552;28;20198;-77
2022/03/27 08:08:16;;;;;;;25.73;11.15;;;;;;;12.26;39.36;63265.19;5040124;28;20240;-77
2022/03/27 08:10:45;;;;;;;16.00;9.73;;;;;;;12.32;38.23;63268.84;5042332;28;20230;-78
2022/03/27 08:13:13;;;;;;;20.52;11.18;;;;;;;12.49;39.66;63288.53;5038868;28;20269;-78
2022/03/27 08:15:40;;;;;;;18.05;10.10;;;;;;;12.63;38.57;63303.56;5037679;28;20546;-78
2022/03/27 08:18:08;;;;;;;16.38;9.55;;;;;;;12.90;37.17;63328.47;5040266;28;20225;-79
2022/03/27 08:20:35;;;;;;;21.33;9.85;;;;;;;13.19;36.75;63358.06;5035992;28;20241;-78
2022/03/27 08:23:03;;;;;;;15.85;10.20;;;;;;;13.20;36.72;63361.66;5031983;28;20222;-79
2022/03/27 08:28:16;;;;;;;21.27;10.70;;;;;;;13.67;32.94;63410.41;5044514;28;20271;-79
2022/03/27 08:30:43;;;;;;;13.13;8.15;;;;;;;13.77;33.08;63418.75;5041361;28;20396;-79
2022/03/27 08:33:10;;;;;;;11.48;8.32;;;;;;;13.87;33.27;63429.13;5044781;28;20241;-78
2022/03/27 08:35:41;;;;;;;15.90;9.57;;;;;;;13.97;32.55;63441.56;5037913;28;20237;-78
2022/03/27 08:38:08;;;;;;;16.75;9.63;;;;;;;14.11;32.41;63453.53;5039878;28;20224;-78
2022/03/27 08:40:38;;;;;;;17.35;10.10;;;;;;;14.10;32.03;63454.56;5041749;28;20270;-80
2022/03/27 08:43:06;;;;;;;15.60;8.75;;;;;;;14.05;32.09;63451.94;5041123;28;20219;-79
2022/03/27 08:45:34;;;;;;;20.45;9.40;;;;;;;14.19;32.36;63466.44;5044594;28;20211;-77
2022/03/27 08:48:02;;;;;;;19.70;8.88;;;;;;;14.05;32.41;63447.31;5042406;28;20213;-78
2022/03/27 08:50:31;;;;;;;12.80;8.23;;;;;;;14.11;32.64;63458.66;5043187;28;20202;-78
2022/03/27 08:52:59;;;;;;;15.95;8.30;;;;;;;14.37;32.47;63485.16;5041930;28;20290;-79
2022/03/27 08:55:38;;;;;;;17.20;8.52;;;;;;;14.46;31.86;63492.47;5045262;28;20229;-78
2022/03/27 08:58:07;;;;;;;16.27;8.65;;;;;;;14.47;31.92;63493.50;5041743;28;20514;-78
2022/03/27 09:00:37;;;;;;;16.55;8.73;;;;;;;14.51;31.48;63500.22;5040612;28;20513;-79
2022/03/27 09:03:05;;;;;;;14.25;9.70;;;;;;;14.39;32.07;63482.13;5041670;28;20301;-80
2022/03/27 09:05:34;;;;;;;11.88;7.65;;;;;;;14.40;31.63;63483.69;5042762;28;20249;-79
2022/03/27 09:08:05;;;;;;;18.45;8.85;;;;;;;14.55;31.51;63506.94;5049925;28;20252;-78
2022/03/27 09:10:32;;;;;;;19.30;8.93;;;;;;;14.68;31.40;63510.19;5047739;28;20221;-78
2022/03/27 09:13:01;;;;;;;15.85;9.20;;;;;;;14.59;31.44;63500.31;5054903;28;20233;-78
2022/03/27 09:15:28;;;;;;;14.65;8.90;;;;;;;14.77;31.26;63524.16;5056590;28;20468;-78
2022/03/27 09:18:01;;;;;;;12.65;7.43;;;;;;;14.91;31.41;63538.69;5044289;28;20231;-78
2022/03/27 09:20:34;;;;;;;14.05;8.18;;;;;;;14.82;30.80;63532.41;5049339;28;20309;-77
2022/03/27 09:23:16;;;;;;;17.40;8.65;;;;;;;14.87;31.50;63535.06;5050960;28;20241;-78
2022/03/27 09:25:48;;;;;;;19.90;10.07;;;;;;;15.11;30.75;63554.34;5049180;28;20265;-78
2022/03/27 09:28:23;;;;;;;18.08;8.60;;;;;;;15.15;31.05;63561.06;5044262;28;20296;-78
2022/03/27 09:30:51;;;;;;;12.05;7.60;;;;;;;15.20;30.49;63563.19;5053702;28;20193;-78
2022/03/27 09:33:46;;;;;;;15.48;9.43;;;;;;;15.32;30.67;63578.75;5051855;28;20561;-78
2022/03/27 09:36:14;;;;;;;17.00;9.18;;;;;;;15.22;30.20;63567.81;5051217;28;20233;-77
2022/03/27 09:38:42;;;;;;;17.02;8.30;;;;;;;15.27;30.52;63573.03;5052580;28;20224;-77
2022/03/27 09:41:33;;;;;;;12.88;8.88;;;;;;;15.47;29.95;63596.38;5051679;28;20198;-78
2022/03/27 09:44:03;;;;;;;18.83;8.63;;;;;;;15.40;30.34;63591.69;5050770;28;20210;-77
2022/03/27 09:46:54;;;;;;;15.82;8.48;;;;;;;15.32;30.25;63583.34;5049868;28;20514;-78
2022/03/27 09:49:26;;;;;;;16.88;9.13;;;;;;;15.55;29.83;63605.22;5043098;28;20508;-76
2022/03/27 09:51:56;;;;;;;16.95;8.50;;;;;;;15.22;28.32;63567.81;5046292;28;20281;-77
2022/03/27 09:54:23;;;;;;;24.60;8.48;;;;;;;15.48;28.87;63602.56;5045959;28;20228;-75
2022/03/27 09:56:50;;;;;;;15.27;7.82;;;;;;;15.69;29.14;63619.25;5039360;28;20248;-76
2022/03/27 09:59:29;;;;;;;13.18;8.73;;;;;;;15.66;28.70;63621.78;5043331;28;20215;-79
2022/03/27 10:02:16;;;;;;;16.75;7.07;;;;;;;15.62;28.45;63609.94;5035780;28;20224;-76
2022/03/27 10:05:04;;;;;;;15.88;7.63;;;;;;;15.89;28.76;63643.13;5048097;28;20407;-78
2022/03/27 10:07:40;;;;;;;13.93;7.63;;;;;;;16.04;28.54;63656.19;5032573;28;20245;-77
2022/03/27 10:10:10;;;;;;;23.38;8.63;;;;;;;16.25;27.74;63682.09;5036236;28;20200;-79
2022/03/27 10:12:38;;;;;;;18.20;8.32;;;;;;;16.23;28.19;63675.41;5047919;28;20209;-78
2022/03/27 10:15:08;;;;;;;13.35;7.53;;;;;;;16.31;28.38;63681.16;5046325;28;20252;-77
2022/03/27 10:17:39;;;;;;;8.77;6.57;;;;;;;15.92;27.79;63646.25;5046510;28;20228;-77
2022/03/27 10:20:14;;;;;;;13.10;7.90;;;;;;;16.30;28.03;63682.69;5039973;28;20245;-79
2022/03/27 10:22:48;;;;;;;13.88;8.18;;;;;;;16.46;28.04;63696.25;5041682;28;20288;-79
2022/03/27 10:25:18;;;;;;;11.98;7.65;;;;;;;16.46;27.65;63698.81;5048801;28;20189;-78
2022/03/27 10:27:47;;;;;;;7.22;5.90;;;;;;;16.42;25.66;63694.66;5037379;28;20217;-77
2022/03/27 10:30:19;;;;;;;11.35;6.60;;;;;;;16.33;26.01;63690.44;5049179;28;20195;-75
2022/03/27 10:32:46;;;;;;;18.05;8.00;;;;;;;16.14;26.36;63664.00;5045016;28;20241;-78
2022/03/27 10:35:44;;;;;;;14.15;6.53;;;;;;;16.15;25.90;63672.75;5039773;28;20535;-79
2022/03/27 10:38:19;;;;;;;11.43;6.53;;;;;;;16.45;26.03;63695.19;5047142;28;20264;-78
2022/03/27 10:40:59;;;;;;;10.55;5.82;;;;;;;16.66;25.71;63720.16;5029107;28;20265;-78
2022/03/27 10:43:37;;;;;;;12.00;6.80;;;;;;;16.64;25.82;63717.56;5048353;28;20228;-79
2022/03/27 10:46:15;;;;;;;12.13;6.47;;;;;;;16.75;25.78;63729.00;5049074;28;20200;-79
2022/03/27 10:48:44;;;;;;;15.70;6.05;;;;;;;16.63;25.21;63717.06;5050452;28;20217;-81
2022/03/27 10:51:34;;;;;;;14.50;6.65;;;;;;;16.62;25.50;63715.50;5049271;28;20212;-77
2022/03/27 10:54:02;;;;;;;12.38;6.57;;;;;;;16.56;25.29;63706.66;5048346;28;20289;-78
2022/03/27 10:56:34;;;;;;;14.45;7.00;;;;;;;16.72;25.09;63728.97;5044162;28;20561;-80
2022/03/27 10:59:09;;;;;;;9.05;6.15;;;;;;;16.72;25.02;63718.69;5047197;28;20197;-78
2022/03/27 11:01:41;;;;;;;8.48;5.63;;;;;;;16.79;24.88;63736.25;5045261;28;20201;-79
2022/03/27 11:04:10;;;;;;;8.00;6.07;;;;;;;16.81;24.55;63735.78;5038558;28;20276;-78
2022/03/27 11:06:46;;;;;;;8.20;6.20;;;;;;;16.90;24.94;63742.56;5047703;28;20216;-79
2022/03/27 11:09:32;;;;;;;11.77;6.80;;;;;;;17.08;25.33;63761.28;5047770;28;20201;-77
2022/03/27 11:12:00;;;;;;;13.88;7.30;;;;;;;17.07;25.12;63764.88;5045675;28;20221;-76
2022/03/27 11:15:00;;;;;;;16.60;6.43;;;;;;;16.99;25.33;63751.41;5046296;28;20204;-78
2022/03/27 11:17:38;;;;;;;14.80;7.32;;;;;;;16.91;25.94;63745.66;5040493;28;20233;-77
2022/03/27 11:20:11;;;;;;;10.43;7.30;;;;;;;17.08;24.62;63763.34;5038831;28;20335;-78
2022/03/27 11:22:52;;;;;;;18.75;7.28;;;;;;;17.17;23.83;63775.31;5044941;28;20267;-78
2022/03/27 11:25:32;;;;;;;13.20;6.50;;;;;;;17.27;23.76;63780.56;5044731;28;20445;-77
2022/03/27 11:28:07;;;;;;;16.00;7.68;;;;;;;17.18;23.85;63771.19;5044213;28;20233;-77
2022/03/27 11:30:36;;;;;;;14.10;7.05;;;;;;;17.29;23.93;63780.59;5029745;28;20201;-77
2022/03/27 11:33:22;;;;;;;9.02;6.15;;;;;;;16.81;25.50;63735.78;5046034;28;20217;-78
2022/03/27 11:36:24;;;;;;;12.00;8.38;;;;;;;16.83;25.76;63743.00;5038081;28;20302;-77
2022/03/27 11:39:02;;;;;;;12.75;7.85;;;;;;;16.87;26.31;63742.03;5049729;28;20225;-77
2022/03/27 11:41:38;;;;;;;14.43;8.13;;;;;;;17.18;25.56;63776.88;5049045;28;20198;-76
2022/03/27 11:44:22;;;;;;;14.63;8.27;;;;;;;17.41;25.83;63797.72;5047899;28;20197;-78
2022/03/27 11:46:51;;;;;;;15.45;8.95;;;;;;;17.61;25.44;63820.59;5051457;28;20636;-77
2022/03/27 11:49:18;;;;;;;15.30;9.23;;;;;;;17.46;25.55;63802.94;5052383;28;20215;-77
2022/03/27 11:51:46;;;;;;;14.57;7.90;;;;;;;17.37;25.11;63790.97;5044674;28;20228;-78